sensor_id;sensor_type;location;lat;lon;timestamp;pressure;altitude;pressure_sealevel;temperature;humidity
62926;BME280;55732;52.248;-0.844;2023-03-23T00:01:03;98529.05;;;8.88;82.31
62926;BME280;55732;52.248;-0.844;2023-03-23T00:03:30;98531.95;;;8.85;82.42
62926;BME280;55732;52.248;-0.844;2023-03-23T00:06:00;98537.30;;;8.82;82.35
62926;BME280;55732;52.248;-0.844;2023-03-23T00:08:37;98544.41;;;8.78;82.44
62926;BME280;55732;52.248;-0.844;2023-03-23T00:11:06;98545.77;;;8.74;82.45
62926;BME280;55732;52.248;-0.844;2023-03-23T00:13:32;98545.88;;;8.69;82.67
62926;BME280;55732;52.248;-0.844;2023-03-23T00:15:59;98541.58;;;8.65;82.70
62926;BME280;55732;52.248;-0.844;2023-03-23T00:18:25;98537.45;;;8.62;82.74
62926;BME280;55732;52.248;-0.844;2023-03-23T00:20:53;98542.27;;;8.60;82.79
62926;BME280;55732;52.248;-0.844;2023-03-23T00:23:22;98542.31;;;8.58;82.91
62926;BME280;55732;52.248;-0.844;2023-03-23T00:25:50;98543.05;;;8.57;83.07
62926;BME280;55732;52.248;-0.844;2023-03-23T00:28:19;98547.41;;;8.58;82.90
62926;BME280;55732;52.248;-0.844;2023-03-23T00:31:04;98547.73;;;8.58;82.70
62926;BME280;55732;52.248;-0.844;2023-03-23T00:33:34;98551.73;;;8.60;82.86
62926;BME280;55732;52.248;-0.844;2023-03-23T00:36:08;98559.02;;;8.63;82.72
62926;BME280;55732;52.248;-0.844;2023-03-23T00:38:34;98564.89;;;8.66;82.67
62926;BME280;55732;52.248;-0.844;2023-03-23T00:41:00;98570.98;;;8.68;82.68
62926;BME280;55732;52.248;-0.844;2023-03-23T00:43:28;98570.77;;;8.71;82.62
62926;BME280;55732;52.248;-0.844;2023-03-23T00:45:55;98569.83;;;8.73;82.64
62926;BME280;55732;52.248;-0.844;2023-03-23T00:48:22;98575.45;;;8.73;82.64
62926;BME280;55732;52.248;-0.844;2023-03-23T00:50:50;98579.88;;;8.71;82.62
62926;BME280;55732;52.248;-0.844;2023-03-23T00:53:16;98576.63;;;8.67;82.57
62926;BME280;55732;52.248;-0.844;2023-03-23T00:55:44;98571.45;;;8.64;82.55
62926;BME280;55732;52.248;-0.844;2023-03-23T00:58:11;98572.63;;;8.59;82.46
62926;BME280;55732;52.248;-0.844;2023-03-23T01:00:37;98582.20;;;8.55;82.35
62926;BME280;55732;52.248;-0.844;2023-03-23T01:03:03;98580.52;;;8.52;82.30
62926;BME280;55732;52.248;-0.844;2023-03-23T01:05:34;98579.05;;;8.49;82.25
62926;BME280;55732;52.248;-0.844;2023-03-23T01:08:00;98594.02;;;8.46;82.05
62926;BME280;55732;52.248;-0.844;2023-03-23T01:10:27;98599.37;;;8.42;81.96
62926;BME280;55732;52.248;-0.844;2023-03-23T01:12:53;98600.15;;;8.39;81.87
62926;BME280;55732;52.248;-0.844;2023-03-23T01:15:20;98608.14;;;8.35;81.66
62926;BME280;55732;52.248;-0.844;2023-03-23T01:17:45;98611.52;;;8.33;81.70
62926;BME280;55732;52.248;-0.844;2023-03-23T01:20:13;98618.90;;;8.30;81.65
62926;BME280;55732;52.248;-0.844;2023-03-23T01:22:40;98625.44;;;8.28;81.59
62926;BME280;55732;52.248;-0.844;2023-03-23T01:25:07;98629.02;;;8.25;81.61
62926;BME280;55732;52.248;-0.844;2023-03-23T01:27:33;98639.43;;;8.22;81.58
62926;BME280;55732;52.248;-0.844;2023-03-23T01:29:59;98644.22;;;8.20;81.77
62926;BME280;55732;52.248;-0.844;2023-03-23T01:32:24;98648.14;;;8.17;81.55
62926;BME280;55732;52.248;-0.844;2023-03-23T01:34:50;98646.77;;;8.15;81.45
62926;BME280;55732;52.248;-0.844;2023-03-23T01:37:15;98657.69;;;8.14;81.27
62926;BME280;55732;52.248;-0.844;2023-03-23T01:39:42;98659.14;;;8.12;81.01
62926;BME280;55732;52.248;-0.844;2023-03-23T01:42:10;98656.21;;;8.09;80.98
62926;BME280;55732;52.248;-0.844;2023-03-23T01:47:02;98657.90;;;8.04;80.80
62926;BME280;55732;52.248;-0.844;2023-03-23T01:49:31;98665.70;;;8.01;80.50
62926;BME280;55732;52.248;-0.844;2023-03-23T01:52:01;98668.17;;;7.99;80.49
62926;BME280;55732;52.248;-0.844;2023-03-23T01:54:28;98669.96;;;7.97;80.20
62926;BME280;55732;52.248;-0.844;2023-03-23T01:57:04;98671.05;;;7.95;80.16
62926;BME280;55732;52.248;-0.844;2023-03-23T01:59:33;98671.80;;;7.92;80.11
62926;BME280;55732;52.248;-0.844;2023-03-23T02:02:00;98670.84;;;7.89;80.10
62926;BME280;55732;52.248;-0.844;2023-03-23T02:04:28;98675.79;;;7.87;80.24
62926;BME280;55732;52.248;-0.844;2023-03-23T02:06:54;98675.30;;;7.85;80.27
62926;BME280;55732;52.248;-0.844;2023-03-23T02:09:24;98687.27;;;7.82;80.36
62926;BME280;55732;52.248;-0.844;2023-03-23T02:11:51;98687.17;;;7.78;80.45
62926;BME280;55732;52.248;-0.844;2023-03-23T02:14:18;98687.58;;;7.76;80.63
62926;BME280;55732;52.248;-0.844;2023-03-23T02:21:59;98698.02;;;7.70;80.68
62926;BME280;55732;52.248;-0.844;2023-03-23T02:27:14;98705.17;;;7.64;80.94
62926;BME280;55732;52.248;-0.844;2023-03-23T02:37:52;98711.14;;;7.55;81.25
62926;BME280;55732;52.248;-0.844;2023-03-23T02:40:29;98713.45;;;7.52;81.39
62926;BME280;55732;52.248;-0.844;2023-03-23T02:42:57;98715.59;;;7.50;81.63
62926;BME280;55732;52.248;-0.844;2023-03-23T02:45:27;98710.90;;;7.47;81.53
62926;BME280;55732;52.248;-0.844;2023-03-23T02:47:54;98714.77;;;7.46;81.66
62926;BME280;55732;52.248;-0.844;2023-03-23T02:50:24;98716.91;;;7.44;81.89
62926;BME280;55732;52.248;-0.844;2023-03-23T02:52:53;98724.65;;;7.43;82.10
62926;BME280;55732;52.248;-0.844;2023-03-23T02:55:21;98719.10;;;7.41;82.13
62926;BME280;55732;52.248;-0.844;2023-03-23T02:57:52;98715.44;;;7.39;82.29
62926;BME280;55732;52.248;-0.844;2023-03-23T03:00:18;98718.80;;;7.38;82.41
62926;BME280;55732;52.248;-0.844;2023-03-23T03:02:54;98716.38;;;7.36;82.61
62926;BME280;55732;52.248;-0.844;2023-03-23T03:06:02;98716.42;;;7.33;82.70
62926;BME280;55732;52.248;-0.844;2023-03-23T03:08:45;98717.37;;;7.30;83.02
62926;BME280;55732;52.248;-0.844;2023-03-23T03:11:16;98717.08;;;7.26;83.07
62926;BME280;55732;52.248;-0.844;2023-03-23T03:13:50;98718.20;;;7.22;83.30
62926;BME280;55732;52.248;-0.844;2023-03-23T03:18:54;98715.88;;;7.15;83.76
62926;BME280;55732;52.248;-0.844;2023-03-23T03:21:23;98715.21;;;7.13;83.91
62926;BME280;55732;52.248;-0.844;2023-03-23T03:23:54;98718.92;;;7.10;83.85
62926;BME280;55732;52.248;-0.844;2023-03-23T03:26:22;98724.42;;;7.07;83.92
62926;BME280;55732;52.248;-0.844;2023-03-23T03:28:52;98727.80;;;7.04;84.10
62926;BME280;55732;52.248;-0.844;2023-03-23T03:31:21;98728.35;;;7.02;84.27
62926;BME280;55732;52.248;-0.844;2023-03-23T03:33:48;98728.55;;;7.00;84.31
62926;BME280;55732;52.248;-0.844;2023-03-23T03:36:17;98731.24;;;6.96;84.38
62926;BME280;55732;52.248;-0.844;2023-03-23T03:38:45;98734.61;;;6.95;84.49
62926;BME280;55732;52.248;-0.844;2023-03-23T03:41:12;98736.02;;;6.93;84.58
62926;BME280;55732;52.248;-0.844;2023-03-23T03:43:38;98734.66;;;6.91;84.64
62926;BME280;55732;52.248;-0.844;2023-03-23T03:46:03;98738.19;;;6.88;84.63
62926;BME280;55732;52.248;-0.844;2023-03-23T03:48:29;98742.06;;;6.86;84.73
62926;BME280;55732;52.248;-0.844;2023-03-23T03:50:54;98743.85;;;6.84;84.89
62926;BME280;55732;52.248;-0.844;2023-03-23T03:53:24;98744.25;;;6.83;84.87
62926;BME280;55732;52.248;-0.844;2023-03-23T03:55:50;98743.39;;;6.81;84.81
62926;BME280;55732;52.248;-0.844;2023-03-23T03:58:21;98739.40;;;6.79;84.80
62926;BME280;55732;52.248;-0.844;2023-03-23T04:00:47;98736.45;;;6.77;84.81
62926;BME280;55732;52.248;-0.844;2023-03-23T04:03:14;98734.37;;;6.76;84.88
62926;BME280;55732;52.248;-0.844;2023-03-23T04:05:40;98731.95;;;6.74;84.83
62926;BME280;55732;52.248;-0.844;2023-03-23T04:08:07;98734.43;;;6.72;84.86
62926;BME280;55732;52.248;-0.844;2023-03-23T04:10:33;98738.48;;;6.71;84.86
62926;BME280;55732;52.248;-0.844;2023-03-23T04:12:59;98742.52;;;6.70;84.81
62926;BME280;55732;52.248;-0.844;2023-03-23T04:15:25;98744.27;;;6.69;84.87
62926;BME280;55732;52.248;-0.844;2023-03-23T04:17:51;98746.39;;;6.68;84.94
62926;BME280;55732;52.248;-0.844;2023-03-23T04:20:17;98754.63;;;6.67;84.83
62926;BME280;55732;52.248;-0.844;2023-03-23T04:22:44;98755.70;;;6.65;84.89
62926;BME280;55732;52.248;-0.844;2023-03-23T04:25:11;98754.66;;;6.63;85.16
62926;BME280;55732;52.248;-0.844;2023-03-23T04:27:41;98760.28;;;6.63;85.12
62926;BME280;55732;52.248;-0.844;2023-03-23T04:30:10;98767.66;;;6.61;85.14
62926;BME280;55732;52.248;-0.844;2023-03-23T04:32:37;98765.95;;;6.60;85.35
62926;BME280;55732;52.248;-0.844;2023-03-23T04:35:08;98767.35;;;6.58;85.26
62926;BME280;55732;52.248;-0.844;2023-03-23T04:37:34;98765.46;;;6.56;85.42
62926;BME280;55732;52.248;-0.844;2023-03-23T04:40:00;98771.23;;;6.54;85.46
62926;BME280;55732;52.248;-0.844;2023-03-23T04:42:30;98772.84;;;6.52;85.66
62926;BME280;55732;52.248;-0.844;2023-03-23T04:44:59;98772.50;;;6.51;85.56
62926;BME280;55732;52.248;-0.844;2023-03-23T04:47:26;98771.99;;;6.50;85.54
62926;BME280;55732;52.248;-0.844;2023-03-23T04:49:57;98773.97;;;6.48;85.46
62926;BME280;55732;52.248;-0.844;2023-03-23T04:52:24;98775.38;;;6.47;85.46
62926;BME280;55732;52.248;-0.844;2023-03-23T04:54:51;98777.31;;;6.46;85.41
62926;BME280;55732;52.248;-0.844;2023-03-23T04:57:18;98776.45;;;6.44;85.27
62926;BME280;55732;52.248;-0.844;2023-03-23T04:59:43;98781.71;;;6.43;85.37
62926;BME280;55732;52.248;-0.844;2023-03-23T05:02:13;98781.55;;;6.42;85.26
62926;BME280;55732;52.248;-0.844;2023-03-23T05:04:40;98784.19;;;6.41;85.37
62926;BME280;55732;52.248;-0.844;2023-03-23T05:07:06;98785.41;;;6.40;85.43
62926;BME280;55732;52.248;-0.844;2023-03-23T05:09:33;98788.95;;;6.37;85.31
62926;BME280;55732;52.248;-0.844;2023-03-23T05:12:09;98792.30;;;6.36;85.40
62926;BME280;55732;52.248;-0.844;2023-03-23T05:14:35;98794.78;;;6.34;85.34
62926;BME280;55732;52.248;-0.844;2023-03-23T05:17:01;98793.05;;;6.32;85.49
62926;BME280;55732;52.248;-0.844;2023-03-23T05:19:28;98798.13;;;6.31;85.60
62926;BME280;55732;52.248;-0.844;2023-03-23T05:21:56;98798.84;;;6.29;85.63
62926;BME280;55732;52.248;-0.844;2023-03-23T05:24:22;98794.66;;;6.28;85.78
62926;BME280;55732;52.248;-0.844;2023-03-23T05:26:49;98798.52;;;6.27;85.77
62926;BME280;55732;52.248;-0.844;2023-03-23T05:29:17;98794.17;;;6.26;85.79
62926;BME280;55732;52.248;-0.844;2023-03-23T05:31:42;98798.07;;;6.23;85.93
62926;BME280;55732;52.248;-0.844;2023-03-23T05:34:08;98797.56;;;6.21;85.85
62926;BME280;55732;52.248;-0.844;2023-03-23T05:36:33;98797.23;;;6.20;86.07
62926;BME280;55732;52.248;-0.844;2023-03-23T05:38:59;98802.13;;;6.19;85.98
62926;BME280;55732;52.248;-0.844;2023-03-23T05:41:29;98799.69;;;6.18;85.90
62926;BME280;55732;52.248;-0.844;2023-03-23T05:43:54;98795.69;;;6.17;86.10
62926;BME280;55732;52.248;-0.844;2023-03-23T05:46:20;98793.08;;;6.15;86.14
62926;BME280;55732;52.248;-0.844;2023-03-23T05:48:45;98791.50;;;6.15;86.32
62926;BME280;55732;52.248;-0.844;2023-03-23T05:51:11;98793.63;;;6.13;86.39
62926;BME280;55732;52.248;-0.844;2023-03-23T05:53:37;98792.94;;;6.13;86.51
62926;BME280;55732;52.248;-0.844;2023-03-23T05:56:03;98790.69;;;6.13;86.67
62926;BME280;55732;52.248;-0.844;2023-03-23T05:58:29;98786.48;;;6.13;86.78
62926;BME280;55732;52.248;-0.844;2023-03-23T06:00:54;98787.89;;;6.13;86.84
62926;BME280;55732;52.248;-0.844;2023-03-23T06:03:20;98788.76;;;6.13;86.90
62926;BME280;55732;52.248;-0.844;2023-03-23T06:05:47;98785.77;;;6.13;87.10
62926;BME280;55732;52.248;-0.844;2023-03-23T06:08:13;98787.30;;;6.16;87.27
62926;BME280;55732;52.248;-0.844;2023-03-23T06:10:39;98782.55;;;6.20;87.25
62926;BME280;55732;52.248;-0.844;2023-03-23T06:13:04;98773.89;;;6.27;87.12
62926;BME280;55732;52.248;-0.844;2023-03-23T06:15:30;98778.04;;;6.43;87.02
62926;BME280;55732;52.248;-0.844;2023-03-23T06:18:03;98776.43;;;6.70;86.64
62926;BME280;55732;52.248;-0.844;2023-03-23T06:20:30;98779.56;;;7.05;86.06
62926;BME280;55732;52.248;-0.844;2023-03-23T06:22:56;98774.21;;;7.43;85.16
62926;BME280;55732;52.248;-0.844;2023-03-23T06:25:22;98781.64;;;7.85;84.30
62926;BME280;55732;52.248;-0.844;2023-03-23T06:27:48;98778.66;;;8.38;82.99
62926;BME280;55732;52.248;-0.844;2023-03-23T06:30:14;98776.74;;;8.93;81.92
62926;BME280;55732;52.248;-0.844;2023-03-23T06:32:43;98772.77;;;9.59;80.70
62926;BME280;55732;52.248;-0.844;2023-03-23T06:35:11;98774.79;;;10.33;78.92
62926;BME280;55732;52.248;-0.844;2023-03-23T06:37:37;98772.30;;;10.69;77.33
62926;BME280;55732;52.248;-0.844;2023-03-23T06:40:04;98774.29;;;10.68;76.73
62926;BME280;55732;52.248;-0.844;2023-03-23T06:42:33;98772.88;;;10.68;76.36
62926;BME280;55732;52.248;-0.844;2023-03-23T06:44:59;98772.43;;;10.82;75.83
62926;BME280;55732;52.248;-0.844;2023-03-23T06:47:27;98769.14;;;11.19;74.74
62926;BME280;55732;52.248;-0.844;2023-03-23T06:49:55;98770.43;;;11.85;73.15
62926;BME280;55732;52.248;-0.844;2023-03-23T06:52:22;98768.68;;;12.74;71.54
62926;BME280;55732;52.248;-0.844;2023-03-23T06:54:51;98759.80;;;13.70;69.86
62926;BME280;55732;52.248;-0.844;2023-03-23T06:57:17;98757.83;;;14.80;67.74
62926;BME280;55732;52.248;-0.844;2023-03-23T06:59:43;98757.52;;;15.90;65.19
62926;BME280;55732;52.248;-0.844;2023-03-23T07:02:13;98749.58;;;16.87;62.95
62926;BME280;55732;52.248;-0.844;2023-03-23T07:04:40;98753.98;;;17.89;60.33
62926;BME280;55732;52.248;-0.844;2023-03-23T07:07:08;98751.04;;;18.88;58.31
62926;BME280;55732;52.248;-0.844;2023-03-23T07:09:34;98755.70;;;19.84;56.03
62926;BME280;55732;52.248;-0.844;2023-03-23T07:12:00;98756.10;;;20.65;54.26
62926;BME280;55732;52.248;-0.844;2023-03-23T07:14:26;98748.07;;;21.38;52.08
62926;BME280;55732;52.248;-0.844;2023-03-23T07:16:52;98750.02;;;22.02;50.93
62926;BME280;55732;52.248;-0.844;2023-03-23T07:19:18;98751.18;;;22.49;49.16
62926;BME280;55732;52.248;-0.844;2023-03-23T07:21:44;98744.83;;;22.82;47.39
62926;BME280;55732;52.248;-0.844;2023-03-23T07:24:11;98745.74;;;23.12;46.58
62926;BME280;55732;52.248;-0.844;2023-03-23T07:26:40;98740.30;;;23.54;45.77
62926;BME280;55732;52.248;-0.844;2023-03-23T07:29:06;98737.52;;;23.87;44.08
62926;BME280;55732;52.248;-0.844;2023-03-23T07:31:32;98735.21;;;24.11;44.06
62926;BME280;55732;52.248;-0.844;2023-03-23T07:33:57;98734.73;;;24.58;42.91
62926;BME280;55732;52.248;-0.844;2023-03-23T07:36:23;98726.90;;;25.00;42.48
62926;BME280;55732;52.248;-0.844;2023-03-23T07:38:48;98728.32;;;25.51;41.10
62926;BME280;55732;52.248;-0.844;2023-03-23T07:41:14;98730.64;;;25.96;40.58
62926;BME280;55732;52.248;-0.844;2023-03-23T07:43:39;98734.52;;;26.37;39.41
62926;BME280;55732;52.248;-0.844;2023-03-23T07:46:06;98731.46;;;26.57;38.40
62926;BME280;55732;52.248;-0.844;2023-03-23T07:48:32;98732.11;;;26.91;38.16
62926;BME280;55732;52.248;-0.844;2023-03-23T07:50:58;98726.00;;;27.24;37.47
62926;BME280;55732;52.248;-0.844;2023-03-23T07:53:24;98729.98;;;27.11;37.29
62926;BME280;55732;52.248;-0.844;2023-03-23T07:55:50;98734.76;;;27.14;37.17
62926;BME280;55732;52.248;-0.844;2023-03-23T07:58:15;98735.98;;;26.70;36.67
62926;BME280;55732;52.248;-0.844;2023-03-23T08:00:46;98733.31;;;26.90;36.45
62926;BME280;55732;52.248;-0.844;2023-03-23T08:03:13;98737.92;;;27.20;36.32
62926;BME280;55732;52.248;-0.844;2023-03-23T08:05:39;98739.08;;;26.87;36.26
62926;BME280;55732;52.248;-0.844;2023-03-23T08:08:08;98742.58;;;27.58;35.40
62926;BME280;55732;52.248;-0.844;2023-03-23T08:10:35;98750.88;;;27.96;34.79
62926;BME280;55732;52.248;-0.844;2023-03-23T08:13:01;98750.11;;;28.33;34.11
62926;BME280;55732;52.248;-0.844;2023-03-23T08:15:26;98744.50;;;28.73;33.32
62926;BME280;55732;52.248;-0.844;2023-03-23T08:17:52;98744.34;;;29.07;33.35
62926;BME280;55732;52.248;-0.844;2023-03-23T08:20:18;98743.44;;;29.12;33.32
62926;BME280;55732;52.248;-0.844;2023-03-23T08:22:48;98740.09;;;29.64;32.53
62926;BME280;55732;52.248;-0.844;2023-03-23T08:25:14;98742.58;;;29.95;31.85
62926;BME280;55732;52.248;-0.844;2023-03-23T08:27:40;98740.20;;;30.21;31.16
62926;BME280;55732;52.248;-0.844;2023-03-23T08:30:17;98738.51;;;30.09;31.60
62926;BME280;55732;52.248;-0.844;2023-03-23T08:32:45;98735.02;;;30.20;31.30
62926;BME280;55732;52.248;-0.844;2023-03-23T08:35:11;98738.01;;;30.18;31.11
62926;BME280;55732;52.248;-0.844;2023-03-23T08:37:38;98734.89;;;29.72;31.75
62926;BME280;55732;52.248;-0.844;2023-03-23T08:40:05;98733.73;;;29.71;31.90
62926;BME280;55732;52.248;-0.844;2023-03-23T08:42:42;98735.30;;;29.90;31.24
62926;BME280;55732;52.248;-0.844;2023-03-23T08:45:10;98731.61;;;28.64;32.37
62926;BME280;55732;52.248;-0.844;2023-03-23T08:47:37;98733.77;;;26.64;34.30
62926;BME280;55732;52.248;-0.844;2023-03-23T08:50:05;98734.36;;;24.82;36.40
62926;BME280;55732;52.248;-0.844;2023-03-23T08:52:31;98735.48;;;23.25;38.29
62926;BME280;55732;52.248;-0.844;2023-03-23T08:54:57;98735.71;;;21.76;40.24
62926;BME280;55732;52.248;-0.844;2023-03-23T08:57:24;98738.10;;;20.47;42.53
62926;BME280;55732;52.248;-0.844;2023-03-23T08:59:50;98738.30;;;19.43;44.27
62926;BME280;55732;52.248;-0.844;2023-03-23T09:02:16;98733.79;;;18.48;45.81
62926;BME280;55732;52.248;-0.844;2023-03-23T09:04:43;98737.79;;;17.59;47.65
62926;BME280;55732;52.248;-0.844;2023-03-23T09:07:12;98744.63;;;16.96;49.16
62926;BME280;55732;52.248;-0.844;2023-03-23T09:09:40;98747.44;;;16.78;49.96
62926;BME280;55732;52.248;-0.844;2023-03-23T09:12:07;98745.65;;;16.97;50.39
62926;BME280;55732;52.248;-0.844;2023-03-23T09:14:34;98739.52;;;18.26;48.57
62926;BME280;55732;52.248;-0.844;2023-03-23T09:17:01;98735.96;;;20.61;45.08
62926;BME280;55732;52.248;-0.844;2023-03-23T09:19:32;98734.11;;;21.27;43.86
62926;BME280;55732;52.248;-0.844;2023-03-23T09:21:58;98735.30;;;22.18;42.22
62926;BME280;55732;52.248;-0.844;2023-03-23T09:24:25;98742.02;;;22.74;41.22
62926;BME280;55732;52.248;-0.844;2023-03-23T09:26:51;98744.27;;;22.21;41.44
62926;BME280;55732;52.248;-0.844;2023-03-23T09:29:18;98744.21;;;21.73;42.12
62926;BME280;55732;52.248;-0.844;2023-03-23T09:31:44;98740.91;;;20.92;43.04
62926;BME280;55732;52.248;-0.844;2023-03-23T09:34:12;98739.40;;;19.98;44.36
62926;BME280;55732;52.248;-0.844;2023-03-23T09:36:41;98740.83;;;21.00;43.39
62926;BME280;55732;52.248;-0.844;2023-03-23T09:39:07;98741.95;;;22.46;41.73
62926;BME280;55732;52.248;-0.844;2023-03-23T09:47:21;98737.15;;;24.65;37.16
62926;BME280;55732;52.248;-0.844;2023-03-23T09:49:54;98740.70;;;24.70;37.09
62926;BME280;55732;52.248;-0.844;2023-03-23T09:52:35;98745.89;;;24.42;37.48
62926;BME280;55732;52.248;-0.844;2023-03-23T09:55:03;98739.18;;;24.67;37.00
62926;BME280;55732;52.248;-0.844;2023-03-23T09:57:40;98741.95;;;24.29;37.64
62926;BME280;55732;52.248;-0.844;2023-03-23T10:00:31;98741.54;;;22.97;38.95
62926;BME280;55732;52.248;-0.844;2023-03-23T10:03:10;98744.77;;;21.77;40.04
62926;BME280;55732;52.248;-0.844;2023-03-23T10:05:42;98754.17;;;20.82;41.58
62926;BME280;55732;52.248;-0.844;2023-03-23T10:08:19;98752.45;;;20.39;42.03
62926;BME280;55732;52.248;-0.844;2023-03-23T10:10:47;98753.17;;;20.56;42.12
62926;BME280;55732;52.248;-0.844;2023-03-23T10:16:21;98746.70;;;19.02;44.59
62926;BME280;55732;52.248;-0.844;2023-03-23T10:21:16;98752.86;;;17.48;47.64
62926;BME280;55732;52.248;-0.844;2023-03-23T10:24:00;98754.13;;;17.08;48.85
62926;BME280;55732;52.248;-0.844;2023-03-23T10:26:48;98755.99;;;17.52;48.82
62926;BME280;55732;52.248;-0.844;2023-03-23T10:29:21;98755.13;;;17.94;48.26
62926;BME280;55732;52.248;-0.844;2023-03-23T10:32:01;98754.55;;;18.20;48.20
62926;BME280;55732;52.248;-0.844;2023-03-23T10:34:45;98745.96;;;19.16;47.19
62926;BME280;55732;52.248;-0.844;2023-03-23T10:42:09;98744.95;;;19.01;47.74
62926;BME280;55732;52.248;-0.844;2023-03-23T10:44:36;98747.09;;;19.83;46.03
62926;BME280;55732;52.248;-0.844;2023-03-23T10:47:04;98739.61;;;20.51;45.26
62926;BME280;55732;52.248;-0.844;2023-03-23T10:50:06;98740.98;;;20.94;44.17
62926;BME280;55732;52.248;-0.844;2023-03-23T10:52:36;98748.70;;;20.96;43.98
62926;BME280;55732;52.248;-0.844;2023-03-23T10:57:36;98752.06;;;20.94;43.86
62926;BME280;55732;52.248;-0.844;2023-03-23T11:00:14;98760.95;;;20.12;44.59
62926;BME280;55732;52.248;-0.844;2023-03-23T11:03:02;98756.46;;;19.38;45.90
62926;BME280;55732;52.248;-0.844;2023-03-23T11:05:37;98753.33;;;18.71;46.85
62926;BME280;55732;52.248;-0.844;2023-03-23T11:08:30;98757.45;;;18.14;47.93
62926;BME280;55732;52.248;-0.844;2023-03-23T11:10:59;98754.13;;;17.63;48.96
62926;BME280;55732;52.248;-0.844;2023-03-23T11:13:32;98748.25;;;17.45;49.31
62926;BME280;55732;52.248;-0.844;2023-03-23T11:15:59;98750.01;;;17.39;49.97
62926;BME280;55732;52.248;-0.844;2023-03-23T11:18:38;98745.67;;;17.40;50.70
62926;BME280;55732;52.248;-0.844;2023-03-23T11:21:05;98744.20;;;17.44;50.74
62926;BME280;55732;52.248;-0.844;2023-03-23T11:23:34;98745.77;;;17.41;50.50
62926;BME280;55732;52.248;-0.844;2023-03-23T11:26:34;98740.77;;;17.42;50.48
62926;BME280;55732;52.248;-0.844;2023-03-23T11:29:15;98735.82;;;17.50;50.35
62926;BME280;55732;52.248;-0.844;2023-03-23T11:31:48;98733.87;;;17.44;50.34
62926;BME280;55732;52.248;-0.844;2023-03-23T11:34:21;98735.79;;;17.54;50.68
62926;BME280;55732;52.248;-0.844;2023-03-23T11:39:34;98729.29;;;17.56;50.91
62926;BME280;55732;52.248;-0.844;2023-03-23T11:42:16;98730.77;;;17.60;50.98
62926;BME280;55732;52.248;-0.844;2023-03-23T11:44:44;98720.35;;;17.71;50.98
62926;BME280;55732;52.248;-0.844;2023-03-23T11:47:28;98714.22;;;17.75;50.58
62926;BME280;55732;52.248;-0.844;2023-03-23T11:50:10;98723.65;;;17.73;50.49
62926;BME280;55732;52.248;-0.844;2023-03-23T11:55:33;98728.17;;;17.80;49.62
62926;BME280;55732;52.248;-0.844;2023-03-23T11:58:09;98738.15;;;17.80;49.29
62926;BME280;55732;52.248;-0.844;2023-03-23T12:00:38;98735.70;;;17.77;49.20
62926;BME280;55732;52.248;-0.844;2023-03-23T12:12:26;98739.41;;;17.49;50.15
62926;BME280;55732;52.248;-0.844;2023-03-23T12:19:45;98721.42;;;17.59;50.19
62926;BME280;55732;52.248;-0.844;2023-03-23T12:30:35;98717.46;;;17.20;49.96
62926;BME280;55732;52.248;-0.844;2023-03-23T12:33:26;98709.66;;;17.29;50.01
62926;BME280;55732;52.248;-0.844;2023-03-23T12:38:49;98703.55;;;17.48;50.53
62926;BME280;55732;52.248;-0.844;2023-03-23T12:41:18;98708.60;;;17.50;50.80
62926;BME280;55732;52.248;-0.844;2023-03-23T12:43:59;98710.69;;;17.51;50.95
62926;BME280;55732;52.248;-0.844;2023-03-23T12:49:12;98702.71;;;17.26;51.34
62926;BME280;55732;52.248;-0.844;2023-03-23T12:57:20;98700.22;;;17.26;51.19
62926;BME280;55732;52.248;-0.844;2023-03-23T12:59:49;98696.04;;;17.16;50.82
62926;BME280;55732;52.248;-0.844;2023-03-23T13:02:20;98694.81;;;17.00;51.00
62926;BME280;55732;52.248;-0.844;2023-03-23T13:04:55;98692.58;;;16.80;51.56
62926;BME280;55732;52.248;-0.844;2023-03-23T13:07:28;98688.64;;;16.61;51.66
62926;BME280;55732;52.248;-0.844;2023-03-23T13:12:26;98682.27;;;16.45;52.02
62926;BME280;55732;52.248;-0.844;2023-03-23T13:20:34;98692.17;;;16.65;52.85
62926;BME280;55732;52.248;-0.844;2023-03-23T13:25:52;98687.71;;;16.46;53.48
62926;BME280;55732;52.248;-0.844;2023-03-23T13:28:22;98695.50;;;16.40;53.62
62926;BME280;55732;52.248;-0.844;2023-03-23T13:30:55;98695.09;;;16.28;53.89
62926;BME280;55732;52.248;-0.844;2023-03-23T13:33:22;98692.08;;;16.15;54.61
62926;BME280;55732;52.248;-0.844;2023-03-23T13:35:49;98692.10;;;16.05;55.81
62926;BME280;55732;52.248;-0.844;2023-03-23T13:38:23;98688.54;;;15.96;56.97
62926;BME280;55732;52.248;-0.844;2023-03-23T13:40:49;98679.23;;;15.87;57.77
62926;BME280;55732;52.248;-0.844;2023-03-23T13:43:29;98670.92;;;15.90;58.21
62926;BME280;55732;52.248;-0.844;2023-03-23T13:45:55;98666.40;;;16.14;57.89
62926;BME280;55732;52.248;-0.844;2023-03-23T13:48:41;98660.84;;;16.43;56.99
62926;BME280;55732;52.248;-0.844;2023-03-23T13:51:26;98645.79;;;16.65;55.97
62926;BME280;55732;52.248;-0.844;2023-03-23T13:54:05;98645.50;;;16.77;54.97
62926;BME280;55732;52.248;-0.844;2023-03-23T13:56:36;98657.73;;;16.77;54.89
62926;BME280;55732;52.248;-0.844;2023-03-23T14:02:28;98649.97;;;16.86;53.58
62926;BME280;55732;52.248;-0.844;2023-03-23T14:04:56;98659.84;;;16.84;53.08
62926;BME280;55732;52.248;-0.844;2023-03-23T14:07:22;98654.43;;;16.79;53.29
62926;BME280;55732;52.248;-0.844;2023-03-23T14:09:49;98654.36;;;16.68;53.29
62926;BME280;55732;52.248;-0.844;2023-03-23T14:12:21;98657.96;;;16.60;53.20
62926;BME280;55732;52.248;-0.844;2023-03-23T14:14:50;98649.70;;;16.63;53.25
62926;BME280;55732;52.248;-0.844;2023-03-23T14:17:26;98650.85;;;16.61;52.67
62926;BME280;55732;52.248;-0.844;2023-03-23T14:19:55;98642.63;;;16.55;53.03
62926;BME280;55732;52.248;-0.844;2023-03-23T14:25:02;98638.86;;;16.49;53.34
62926;BME280;55732;52.248;-0.844;2023-03-23T14:27:34;98638.20;;;16.49;53.61
62926;BME280;55732;52.248;-0.844;2023-03-23T14:30:02;98646.73;;;16.45;53.44
62926;BME280;55732;52.248;-0.844;2023-03-23T14:32:30;98651.99;;;16.34;53.42
62926;BME280;55732;52.248;-0.844;2023-03-23T14:34:58;98640.27;;;16.28;53.51
62926;BME280;55732;52.248;-0.844;2023-03-23T14:37:24;98635.02;;;16.36;53.65
62926;BME280;55732;52.248;-0.844;2023-03-23T14:39:54;98630.64;;;16.47;53.52
62926;BME280;55732;52.248;-0.844;2023-03-23T14:42:34;98618.68;;;16.54;53.78